Time;durP1;ratioP1;P1;durP2;ratioP2;P2;SDS_P1;SDS_P2;PMS_P1;PMS_P2;Temp;Humidity;BMP_temperature;BMP_pressure;BME280_temperature;BME280_humidity;BME280_pressure;Samples;Min_cycle;Max_cycle;Signal;HPM_P1;HPM_P2
2019/07/05 00:02:16;;;;;;;6.2;4.2;;;;;;;17.66;68.82324;941.5589;;;;
2019/07/05 00:04:41;;;;;;;6.7;4.3;;;;;;;17.56;69.74609;941.5108;;;;
2019/07/05 00:07:06;;;;;;;7.9;4.4;;;;;;;17.43;69.78418;941.5172;;;;
2019/07/05 00:09:32;;;;;;;6.9;4.4;;;;;;;17.41;69.32715;941.4899;;;;
2019/07/05 00:12:09;;;;;;;8.1;3.9;;;;;;;17.29;69.36621;941.5418;;;;
2019/07/05 00:14:38;;;;;;;6.6;4;;;;;;;17.37;69.03125;941.4765;;;;
2019/07/05 00:17:03;;;;;;;6.8;3.9;;;;;;;17.26;69.3623;941.473;;;;
2019/07/05 00:19:29;;;;;;;6.3;4;;;;;;;17.32;68.91895;941.4144;;;;
2019/07/05 00:21:57;;;;;;;9.6;4.5;;;;;;;17.3;68.88086;941.425;;;;
2019/07/05 00:24:22;;;;;;;7.1;4;;;;;;;16.99;70.17676;941.353;;;;
2019/07/05 00:26:55;;;;;;;6.9;4;;;;;;;16.95;70.71582;941.4048;;;;
2019/07/05 00:29:19;;;;;;;7.1;3.9;;;;;;;17.21;69.74805;941.371;;;;
2019/07/05 00:36:59;;;;;;;8.2;4;;;;;;;17.14;70.05078;941.3186;;;;
2019/07/05 00:39:22;;;;;;;5.2;3.9;;;;;;;17.08;70.86328;941.3555;;;;
2019/07/05 00:41:54;;;;;;;5.9;4.2;;;;;;;17.07;70.49121;941.2365;;;;
2019/07/05 00:44:23;;;;;;;7.7;4;;;;;;;17.1;69.87012;941.2853;;;;
2019/07/05 00:46:49;;;;;;;7.5;3.9;;;;;;;16.73;70.89941;941.2796;;;;
2019/07/05 00:49:23;;;;;;;6.8;4.1;;;;;;;16.87;70.35547;941.2858;;;;
2019/07/05 00:52:00;;;;;;;7.4;4.1;;;;;;;16.86;70.24805;941.1411;;;;
2019/07/05 00:54:26;;;;;;;5.8;3.7;;;;;;;16.88;70.22754;941.1602;;;;
2019/07/05 00:56:49;;;;;;;7.9;4.5;;;;;;;16.81;70.5293;941.1253;;;;
2019/07/05 00:59:12;;;;;;;7;4.7;;;;;;;16.82;71.36719;941.1238;;;;
2019/07/05 01:01:41;;;;;;;5.7;4.4;;;;;;;16.79;71.12793;941.2219;;;;
2019/07/05 01:04:08;;;;;;;5.6;4.3;;;;;;;16.84;70.62695;941.2033;;;;
2019/07/05 01:06:37;;;;;;;6.2;4.4;;;;;;;16.78;70.98828;941.2317;;;;
2019/07/05 01:09:04;;;;;;;4.7;4;;;;;;;16.69;71.15039;941.2583;;;;
2019/07/05 01:11:26;;;;;;;6.2;4.4;;;;;;;16.66;71.22559;941.2102;;;;
2019/07/05 01:13:56;;;;;;;5.3;4;;;;;;;16.71;71.40723;941.2388;;;;
2019/07/05 01:16:19;;;;;;;9.8;4.6;;;;;;;16.78;70.80371;941.1061;;;;
2019/07/05 01:18:57;;;;;;;6.8;4.3;;;;;;;16.78;70.51465;941.0853;;;;
2019/07/05 01:21:24;;;;;;;6.6;4.2;;;;;;;16.81;70.36719;941.1509;;;;
2019/07/05 01:23:50;;;;;;;5.8;4;;;;;;;16.56;71.34668;941.0892;;;;
2019/07/05 01:26:16;;;;;;;5.7;4.2;;;;;;;16.52;71.65332;941.0541;;;;
2019/07/05 01:28:42;;;;;;;5.5;3.9;;;;;;;16.69;71.33398;941.1433;;;;
2019/07/05 01:31:10;;;;;;;6.4;4.4;;;;;;;16.65;71.00195;941.0276;;;;
2019/07/05 01:33:38;;;;;;;4.9;3.8;;;;;;;16.42;71.81055;941.0317;;;;
2019/07/05 01:36:00;;;;;;;5.8;3.9;;;;;;;16.28;72.05273;941.0005;;;;
2019/07/05 01:38:27;;;;;;;6.9;3.7;;;;;;;16.04;73.14551;941.0486;;;;
2019/07/05 01:40:56;;;;;;;7.4;3.7;;;;;;;15.93;73.70703;940.9703;;;;
2019/07/05 01:43:24;;;;;;;5.4;3.9;;;;;;;16.08;73.10742;941.0355;;;;
2019/07/05 01:45:44;;;;;;;7.1;4.2;;;;;;;16.04;73.14746;941.0181;;;;
2019/07/05 01:48:09;;;;;;;5.8;4;;;;;;;15.99;73.41602;940.9426;;;;
2019/07/05 01:50:42;;;;;;;6.3;4;;;;;;;16.21;72.41113;940.8497;;;;
2019/07/05 01:53:03;;;;;;;6;4.3;;;;;;;16.04;73.18262;940.8727;;;;
2019/07/05 01:55:34;;;;;;;5.6;4.1;;;;;;;16.03;73.30762;940.925;;;;
2019/07/05 01:58:01;;;;;;;6.6;4.2;;;;;;;16.29;72.25098;940.8574;;;;
2019/07/05 02:00:28;;;;;;;6.7;4.2;;;;;;;16.31;72.34766;940.7913;;;;
2019/07/05 02:02:51;;;;;;;6.6;4.6;;;;;;;16.24;73.13477;940.7991;;;;
2019/07/05 02:05:18;;;;;;;6.8;4.7;;;;;;;16.31;72.9248;940.7874;;;;
2019/07/05 02:07:42;;;;;;;7.6;4.6;;;;;;;16.33;72.79102;940.6819;;;;
2019/07/05 02:10:07;;;;;;;6.9;4.8;;;;;;;16.36;72.53027;940.7764;;;;
2019/07/05 02:12:32;;;;;;;6.2;4.2;;;;;;;16.43;72.39063;940.7559;;;;
2019/07/05 02:15:04;;;;;;;6.4;4.7;;;;;;;16.42;72.93262;940.7311;;;;
2019/07/05 02:17:32;;;;;;;6.7;4.5;;;;;;;16.41;72.64258;940.7286;;;;
2019/07/05 02:23:42;;;;;;;5.7;4.4;;;;;;;16.17;72.9375;940.6613;;;;
2019/07/05 02:26:08;;;;;;;6.4;4.4;;;;;;;16.02;73.42188;940.6519;;;;
2019/07/05 02:28:34;;;;;;;7.4;4.3;;;;;;;16.07;73.23145;940.7198;;;;
2019/07/05 02:31:14;;;;;;;6;4.2;;;;;;;15.92;73.82129;940.7736;;;;
2019/07/05 02:33:31;;;;;;;8;4.8;;;;;;;15.98;73.46191;940.6648;;;;
2019/07/05 02:36:00;;;;;;;6.5;4.2;;;;;;;15.9;74.15234;940.6485;;;;
2019/07/05 02:38:26;;;;;;;7.9;4.4;;;;;;;15.67;75.07324;940.6394;;;;
2019/07/05 02:40:54;;;;;;;7.5;4.4;;;;;;;15.53;75.95996;940.6163;;;;
2019/07/05 02:43:16;;;;;;;7.5;4.5;;;;;;;15.59;75.78516;940.6316;;;;
2019/07/05 02:48:10;;;;;;;7.4;5;;;;;;;15.96;74.52148;940.5773;;;;
2019/07/05 02:50:41;;;;;;;8.3;5.1;;;;;;;15.88;74.83105;940.6373;;;;
2019/07/05 02:53:04;;;;;;;7.9;4.7;;;;;;;15.92;74.96387;940.6122;;;;
2019/07/05 02:55:41;;;;;;;7.3;5;;;;;;;15.97;74.30273;940.6022;;;;
2019/07/05 02:58:03;;;;;;;7.8;4.7;;;;;;;15.94;74.45996;940.592;;;;
2019/07/05 03:00:32;;;;;;;6.7;4.8;;;;;;;15.87;75.16504;940.6046;;;;
2019/07/05 03:02:57;;;;;;;6.6;5.4;;;;;;;15.94;74.70313;940.5623;;;;
2019/07/05 03:05:28;;;;;;;6.1;5;;;;;;;16.05;74.14355;940.5803;;;;
2019/07/05 03:07:56;;;;;;;7;4.3;;;;;;;16.16;73.53711;940.6027;;;;
2019/07/05 03:10:24;;;;;;;6.2;4.7;;;;;;;16.19;73.4375;940.6072;;;;
2019/07/05 03:12:46;;;;;;;7.2;4.6;;;;;;;16.18;73.10254;940.5912;;;;
2019/07/05 03:15:19;;;;;;;10.3;4.9;;;;;;;15.94;73.85742;940.6057;;;;
2019/07/05 03:17:43;;;;;;;8.2;4.8;;;;;;;15.69;74.91406;940.6287;;;;
2019/07/05 03:20:11;;;;;;;7;4.7;;;;;;;15.72;74.90918;940.6422;;;;
2019/07/05 03:22:37;;;;;;;6.3;4.4;;;;;;;15.54;75.59375;940.6749;;;;
2019/07/05 03:25:04;;;;;;;8.5;4.9;;;;;;;15.75;74.87891;940.6003;;;;
2019/07/05 03:27:28;;;;;;;7;4.8;;;;;;;15.44;76.21191;940.673;;;;
2019/07/05 03:29:59;;;;;;;6.8;4.8;;;;;;;15.3;77.04102;940.7136;;;;
2019/07/05 03:32:28;;;;;;;7.1;5;;;;;;;15.63;75.62109;940.6693;;;;
2019/07/05 03:34:48;;;;;;;5;4.4;;;;;;;15.71;75.27539;940.6608;;;;
2019/07/05 03:37:22;;;;;;;6.8;4.6;;;;;;;15.55;76.05762;940.7422;;;;
2019/07/05 03:39:40;;;;;;;9.8;4.6;;;;;;;15.48;76.57422;940.733;;;;
2019/07/05 03:42:06;;;;;;;6.4;4.8;;;;;;;15.63;75.89844;940.7078;;;;
2019/07/05 03:44:48;;;;;;;12.6;4.9;;;;;;;15.6;76.03027;940.6555;;;;
2019/07/05 03:47:22;;;;;;;7.6;4.5;;;;;;;15.6;75.88086;940.7455;;;;
2019/07/05 03:49:49;;;;;;;6.7;5.1;;;;;;;15.66;75.75098;940.7863;;;;
2019/07/05 03:52:21;;;;;;;7.1;4.9;;;;;;;15.81;75.23633;940.8247;;;;
2019/07/05 03:54:53;;;;;;;9.8;4.8;;;;;;;15.73;75.72949;940.7827;;;;
2019/07/05 03:57:17;;;;;;;7.1;5;;;;;;;16.06;74.5957;940.8187;;;;
2019/07/05 03:59:45;;;;;;;7.5;4.7;;;;;;;16.16;73.93066;940.7737;;;;
2019/07/05 04:02:40;;;;;;;6.6;4.9;;;;;;;16.16;73.87305;940.8203;;;;
2019/07/05 04:05:04;;;;;;;7.3;4.7;;;;;;;16.12;74.10938;940.8464;;;;
2019/07/05 04:07:34;;;;;;;8.5;4.9;;;;;;;15.98;74.86133;940.8872;;;;
2019/07/05 04:10:00;;;;;;;9.7;5.7;;;;;;;16.07;74.67871;940.9037;;;;
2019/07/05 04:12:37;;;;;;;9.2;5.4;;;;;;;16.28;74.02148;940.8711;;;;
2019/07/05 04:14:53;;;;;;;9.8;5.4;;;;;;;16.24;73.86328;940.8505;;;;
2019/07/05 04:17:28;;;;;;;7;4.8;;;;;;;16.05;74.83887;940.8156;;;;
2019/07/05 04:19:51;;;;;;;17.2;5.3;;;;;;;16.01;75.02637;940.7988;;;;
2019/07/05 04:22:20;;;;;;;8.7;4.8;;;;;;;16.11;75.02148;940.8006;;;;
2019/07/05 04:24:48;;;;;;;8.8;4.7;;;;;;;16.23;74.55566;940.8474;;;;
2019/07/05 04:27:21;;;;;;;6;4.6;;;;;;;16.27;74.44727;940.868;;;;
2019/07/05 04:29:44;;;;;;;8.5;4.5;;;;;;;16.17;74.91504;940.8363;;;;
2019/07/05 04:32:05;;;;;;;6.7;4.9;;;;;;;16.39;74.14355;940.8331;;;;
2019/07/05 04:34:33;;;;;;;8.9;4.4;;;;;;;16.35;74.12402;940.8721;;;;
2019/07/05 04:36:59;;;;;;;7.7;4.5;;;;;;;16.19;75.0127;940.8169;;;;
2019/07/05 04:39:29;;;;;;;7.4;4.2;;;;;;;16.36;74.12793;940.8881;;;;
2019/07/05 04:41:56;;;;;;;7.1;4.4;;;;;;;16.33;74.14453;940.8441;;;;
2019/07/05 04:44:21;;;;;;;7.6;4.3;;;;;;;16.47;73.75098;940.9099;;;;
2019/07/05 04:46:48;;;;;;;7.2;4.1;;;;;;;16.66;73.13379;940.8289;;;;
2019/07/05 04:49:23;;;;;;;6.8;4;;;;;;;16.79;72.55469;940.8785;;;;
2019/07/05 04:51:49;;;;;;;6.3;4.1;;;;;;;16.98;71.93652;940.8478;;;;
2019/07/05 04:54:20;;;;;;;9.8;4.4;;;;;;;17.04;72.24902;940.7726;;;;
2019/07/05 04:56:42;;;;;;;7.1;4.4;;;;;;;17.27;71.11426;940.8016;;;;
2019/07/05 04:59:05;;;;;;;8.8;4.5;;;;;;;17.37;70.8291;940.8414;;;;
2019/07/05 05:01:36;;;;;;;13.7;7.2;;;;;;;17.5;70.35254;940.8947;;;;
2019/07/05 05:04:04;;;;;;;9.4;5.2;;;;;;;17.6;70.22852;940.8572;;;;
2019/07/05 05:06:29;;;;;;;10.6;5;;;;;;;17.83;70.14844;940.8694;;;;
2019/07/05 05:09:09;;;;;;;9.4;4.7;;;;;;;18.14;69.94336;940.8706;;;;
2019/07/05 05:11:31;;;;;;;6.4;4;;;;;;;18.84;65.50391;940.787;;;;
2019/07/05 05:14:05;;;;;;;6.8;3.9;;;;;;;19.18;64.38867;940.8011;;;;
2019/07/05 05:16:58;;;;;;;6.1;3.7;;;;;;;19.88;61.90234;940.8289;;;;
2019/07/05 05:19:22;;;;;;;6.2;3.8;;;;;;;20.26;60.85938;940.7723;;;;
2019/07/05 05:21:53;;;;;;;8.9;3.6;;;;;;;20.92;58.99805;940.6953;;;;
2019/07/05 05:24:24;;;;;;;25.9;5.4;;;;;;;20.9;58.31543;940.7372;;;;
2019/07/05 05:26:54;;;;;;;7.7;4.7;;;;;;;21.3;57.38477;940.7022;;;;
2019/07/05 05:29:17;;;;;;;9.1;4.1;;;;;;;21.29;57.34863;940.7511;;;;
2019/07/05 05:31:54;;;;;;;11.4;4.1;;;;;;;21.94;55.73535;940.702;;;;
2019/07/05 05:34:18;;;;;;;7.2;4.4;;;;;;;22.4;54.09082;940.7227;;;;
2019/07/05 05:36:42;;;;;;;7.7;3.8;;;;;;;22.72;53.0957;940.7476;;;;
2019/07/05 05:39:13;;;;;;;13.5;4.9;;;;;;;23.25;53.17188;940.7775;;;;
2019/07/05 05:41:42;;;;;;;9.9;4.5;;;;;;;23.14;53.06445;940.6764;;;;
2019/07/05 05:44:10;;;;;;;9.8;4.7;;;;;;;22.83;54.17871;940.7322;;;;
2019/07/05 05:46:38;;;;;;;6.5;3.8;;;;;;;21.69;56.61523;940.6412;;;;
2019/07/05 05:49:14;;;;;;;10.1;4.1;;;;;;;21.07;58.65527;940.7012;;;;
2019/07/05 05:51:45;;;;;;;8.7;3.9;;;;;;;20.93;59.59375;940.7073;;;;
2019/07/05 05:54:06;;;;;;;8.3;3.5;;;;;;;21.69;57.37695;940.6542;;;;
2019/07/05 05:56:42;;;;;;;8.4;3.3;;;;;;;22.03;56.20215;940.6389;;;;
2019/07/05 05:59:07;;;;;;;7.1;3.3;;;;;;;22.57;53.6416;940.6387;;;;
2019/07/05 06:01:37;;;;;;;11;3.9;;;;;;;22.77;53.84277;940.6802;;;;
2019/07/05 06:04:08;;;;;;;10.7;3.9;;;;;;;22.8;54.0918;940.6459;;;;
2019/07/05 06:06:32;;;;;;;7.9;3.3;;;;;;;23.32;52.60449;940.7067;;;;
2019/07/05 06:08:58;;;;;;;7.4;3.6;;;;;;;23.17;52.48145;940.6021;;;;
2019/07/05 06:11:29;;;;;;;8.2;3.9;;;;;;;22.54;53.74414;940.6249;;;;
2019/07/05 06:13:55;;;;;;;9.7;3.5;;;;;;;22.45;53.63965;940.6157;;;;
2019/07/05 06:16:42;;;;;;;6;3.1;;;;;;;22.62;53.60059;940.6273;;;;
2019/07/05 06:19:09;;;;;;;6.8;3.4;;;;;;;23.63;51.2168;940.6678;;;;
2019/07/05 06:21:38;;;;;;;9.5;3.6;;;;;;;24.25;49.16797;940.6311;;;;
2019/07/05 06:24:12;;;;;;;9.4;3.7;;;;;;;23.93;49.29785;940.5991;;;;
2019/07/05 06:26:38;;;;;;;7.3;3.2;;;;;;;23.22;51.81641;940.6384;;;;
2019/07/05 06:29:09;;;;;;;8.5;3.5;;;;;;;22.79;52.90527;940.5561;;;;
2019/07/05 06:31:38;;;;;;;7.7;3.5;;;;;;;22.3;54.61816;940.5417;;;;
2019/07/05 06:34:06;;;;;;;6;3.4;;;;;;;22.22;54.80762;940.5441;;;;
2019/07/05 06:36:25;;;;;;;8.9;3.6;;;;;;;22.04;55.95703;940.6248;;;;
2019/07/05 06:38:50;;;;;;;8.4;3.8;;;;;;;21.96;57.45996;940.6728;;;;
2019/07/05 06:41:19;;;;;;;9.2;3.9;;;;;;;22.01;57.21973;940.6277;;;;
2019/07/05 06:43:44;;;;;;;7.4;3.8;;;;;;;22.07;57.26172;940.5171;;;;
2019/07/05 06:46:11;;;;;;;9.5;3.9;;;;;;;22.58;55.88477;940.5237;;;;
2019/07/05 06:48:35;;;;;;;6.6;3.5;;;;;;;23.59;53.58789;940.57;;;;
2019/07/05 06:51:06;;;;;;;10.3;3.5;;;;;;;24.3;50.59961;940.4673;;;;
2019/07/05 06:53:37;;;;;;;6.5;3.5;;;;;;;23.92;51.48633;940.4741;;;;
2019/07/05 06:56:25;;;;;;;8.8;3.7;;;;;;;23.96;52.32715;940.4606;;;;
2019/07/05 06:58:30;;;;;;;16.9;6.6;;;;;;;23.84;52.53516;940.4953;;;;
2019/07/05 07:00:58;;;;;;;9;4.8;;;;;;;24.41;51.13086;940.4086;;;;
2019/07/05 07:03:26;;;;;;;10;4.6;;;;;;;25.22;49.72461;940.3795;;;;
2019/07/05 07:05:49;;;;;;;9;3.9;;;;;;;25.65;47.46777;940.3639;;;;
2019/07/05 07:08:21;;;;;;;8.4;4.1;;;;;;;25.89;47.03223;940.3493;;;;
2019/07/05 07:10:47;;;;;;;25.7;7.9;;;;;;;26.94;44.97363;940.3399;;;;
2019/07/05 07:13:12;;;;;;;11.6;4.2;;;;;;;27.63;42.18164;940.3105;;;;
2019/07/05 07:15:38;;;;;;;7.5;3.1;;;;;;;28.13;41.94336;940.252;;;;
2019/07/05 07:18:09;;;;;;;7.8;3.6;;;;;;;28.51;39.25586;940.3256;;;;
2019/07/05 07:20:39;;;;;;;8.5;3.4;;;;;;;28.79;40.7793;940.2673;;;;
2019/07/05 07:23:05;;;;;;;7.7;3.6;;;;;;;28.21;41.95117;940.3039;;;;
2019/07/05 07:25:34;;;;;;;6.7;3.1;;;;;;;28.85;39.4043;940.1959;;;;
2019/07/05 07:28:09;;;;;;;7.2;3.3;;;;;;;29.42;39.94336;940.2061;;;;
2019/07/05 07:30:30;;;;;;;4.8;2.7;;;;;;;30.66;34.72266;940.2079;;;;
2019/07/05 07:32:56;;;;;;;5.3;2.8;;;;;;;31.53;33.41309;940.1398;;;;
2019/07/05 07:35:28;;;;;;;5.2;2.5;;;;;;;30.65;34.40039;940.1119;;;;
2019/07/05 07:38:01;;;;;;;8.6;2.6;;;;;;;30.36;40.2168;940.1797;;;;
2019/07/05 07:40:35;;;;;;;4.7;2.7;;;;;;;29.61;41.77246;940.1613;;;;
2019/07/05 07:43:07;;;;;;;8.5;2.5;;;;;;;30.91;36.79883;940.0894;;;;
2019/07/05 07:45:31;;;;;;;6.7;2.2;;;;;;;33.37;30.45898;940.0081;;;;
2019/07/05 07:47:57;;;;;;;4.8;2.2;;;;;;;34.52;27.80078;940.0812;;;;
2019/07/05 07:50:30;;;;;;;8.3;2.4;;;;;;;35.17;27.14063;940.0549;;;;
2019/07/05 07:52:52;;;;;;;9.6;2.4;;;;;;;34.28;29.95508;939.9613;;;;
2019/07/05 07:55:20;;;;;;;7.2;2.2;;;;;;;33.35;35.42285;939.9673;;;;
2019/07/05 07:57:47;;;;;;;11.2;2.4;;;;;;;33.79;30.83594;939.9384;;;;
2019/07/05 08:00:11;;;;;;;7.2;2.5;;;;;;;34.59;31.85547;939.8853;;;;
2019/07/05 08:02:40;;;;;;;13.8;2.6;;;;;;;34.15;31.76367;939.8494;;;;
2019/07/05 08:05:08;;;;;;;7.2;2.2;;;;;;;34.96;30.30078;939.8915;;;;
2019/07/05 08:07:36;;;;;;;7.9;2.3;;;;;;;34.13;32.44824;939.8233;;;;
2019/07/05 08:10:02;;;;;;;8.7;2.4;;;;;;;34.03;32.92383;939.802;;;;
2019/07/05 08:12:34;;;;;;;5.5;2.1;;;;;;;35.26;31.31055;939.7803;;;;
2019/07/05 08:15:12;;;;;;;7.4;2.4;;;;;;;35.01;31.24512;939.798;;;;
2019/07/05 08:17:31;;;;;;;7.4;2.5;;;;;;;33.99;31.22363;939.8092;;;;
2019/07/05 08:20:00;;;;;;;5.2;2.7;;;;;;;32.14;34.05762;939.7642;;;;
2019/07/05 08:22:31;;;;;;;8.2;2.9;;;;;;;31.99;37.48535;939.7636;;;;
2019/07/05 08:24:56;;;;;;;8.2;2.4;;;;;;;32.64;37.97168;939.7225;;;;
2019/07/05 08:27:25;;;;;;;3.9;2.4;;;;;;;33.5;34.9541;939.7543;;;;
2019/07/05 08:29:51;;;;;;;7.6;2.7;;;;;;;33.99;36.20703;939.7112;;;;
2019/07/05 08:32:23;;;;;;;6.2;2.5;;;;;;;34.72;29.30762;939.7167;;;;
2019/07/05 08:34:55;;;;;;;7.7;2.4;;;;;;;35.59;30.88574;939.6906;;;;
2019/07/05 08:37:13;;;;;;;6.8;2.4;;;;;;;36.04;28.03809;939.7015;;;;
2019/07/05 08:39:42;;;;;;;5.2;2.5;;;;;;;35.85;28.34082;939.6594;;;;
2019/07/05 08:42:09;;;;;;;4.8;2.1;;;;;;;35.69;28.8877;939.6808;;;;
2019/07/05 08:44:34;;;;;;;6;2.2;;;;;;;34.86;29.04004;939.5664;;;;
2019/07/05 08:47:01;;;;;;;6.1;2.2;;;;;;;34.18;31.98242;939.6147;;;;
2019/07/05 08:49:32;;;;;;;4.2;2.3;;;;;;;35.15;29.93848;939.573;;;;
2019/07/05 08:52:06;;;;;;;7.7;2.5;;;;;;;33.95;30.36621;939.6312;;;;
2019/07/05 08:54:35;;;;;;;8.3;2.5;;;;;;;31.86;33.70117;939.5589;;;;
2019/07/05 08:57:03;;;;;;;5.5;2.4;;;;;;;31.59;34.49609;939.6494;;;;
2019/07/05 08:59:34;;;;;;;5.8;2.3;;;;;;;32.75;33.74316;939.5396;;;;
2019/07/05 09:01:59;;;;;;;5.4;2.4;;;;;;;33.54;30.38672;939.549;;;;
2019/07/05 09:04:30;;;;;;;6.3;2.3;;;;;;;34.21;30.49219;939.5428;;;;
2019/07/05 09:06:53;;;;;;;7.7;2.3;;;;;;;34.05;30.58887;939.5295;;;;
2019/07/05 09:09:26;;;;;;;6.9;2;;;;;;;35.06;29.31836;939.5137;;;;
2019/07/05 09:12:02;;;;;;;6.6;2.4;;;;;;;34.79;30.71094;939.5259;;;;
2019/07/05 09:14:27;;;;;;;7.5;2.6;;;;;;;33.97;29.66895;939.5662;;;;
2019/07/05 09:16:51;;;;;;;5;2.3;;;;;;;33.3;32.89551;939.562;;;;
2019/07/05 09:19:16;;;;;;;7.4;2.3;;;;;;;32.92;31.03027;939.4961;;;;
2019/07/05 09:21:41;;;;;;;5.6;2.3;;;;;;;31.81;33.16992;939.5062;;;;
2019/07/05 09:24:08;;;;;;;5.2;2.6;;;;;;;30.51;36.4082;939.4999;;;;
2019/07/05 09:26:37;;;;;;;9.9;2.8;;;;;;;30.69;37.1748;939.4344;;;;
2019/07/05 09:29:04;;;;;;;6.9;2.8;;;;;;;31.06;38.15137;939.4403;;;;
2019/07/05 09:31:29;;;;;;;5;2.7;;;;;;;30.53;37.15039;939.4222;;;;
2019/07/05 09:33:58;;;;;;;17.1;2.9;;;;;;;30.04;38.125;939.4012;;;;
2019/07/05 09:36:21;;;;;;;6.8;3;;;;;;;29.47;40.03027;939.3717;;;;
2019/07/05 09:38:59;;;;;;;5.5;2.6;;;;;;;29.55;42.85059;939.4363;;;;
2019/07/05 09:41:27;;;;;;;5.1;2.6;;;;;;;29.9;36.00098;939.3769;;;;
2019/07/05 09:43:50;;;;;;;6.8;2.5;;;;;;;30.36;38.0918;939.3986;;;;
2019/07/05 09:46:15;;;;;;;8.3;2.5;;;;;;;30.74;36.79688;939.2816;;;;
2019/07/05 09:48:45;;;;;;;5;2.6;;;;;;;31.04;38.01758;939.2679;;;;
2019/07/05 09:51:09;;;;;;;7.5;2.6;;;;;;;31;37.5;939.3231;;;;
2019/07/05 09:53:35;;;;;;;6.2;2.4;;;;;;;30.98;36.5293;939.2969;;;;
2019/07/05 09:56:19;;;;;;;6.3;2.4;;;;;;;30.54;37.84375;939.325;;;;
2019/07/05 09:58:40;;;;;;;6;2.7;;;;;;;29.71;38.00098;939.3515;;;;
2019/07/05 10:01:09;;;;;;;5;2.5;;;;;;;29.15;37.08496;939.3279;;;;
2019/07/05 10:03:33;;;;;;;5;2.4;;;;;;;29.78;37.80371;939.2753;;;;
2019/07/05 10:06:06;;;;;;;7;2.4;;;;;;;30.46;38.41113;939.2725;;;;
2019/07/05 10:08:36;;;;;;;8.7;2.9;;;;;;;30.65;35.79785;939.2438;;;;
2019/07/05 10:11:00;;;;;;;7.4;2.8;;;;;;;30.59;35.41113;939.1275;;;;
2019/07/05 10:13:29;;;;;;;4.4;2.7;;;;;;;30.65;37.4834;939.0779;;;;
2019/07/05 10:16:01;;;;;;;5.7;2.5;;;;;;;30.73;37.3584;939.1199;;;;
2019/07/05 10:18:32;;;;;;;5.8;2.9;;;;;;;30.83;35.93164;939.1024;;;;
2019/07/05 10:20:55;;;;;;;4.6;2.5;;;;;;;31.13;37.6416;939.0952;;;;
2019/07/05 10:23:20;;;;;;;6.6;2.6;;;;;;;31.44;36.39941;939.1326;;;;
2019/07/05 10:25:53;;;;;;;7.2;2.4;;;;;;;31.8;35.69727;939.0122;;;;
2019/07/05 10:28:25;;;;;;;6.1;2.5;;;;;;;31.81;34.37988;938.9698;;;;
2019/07/05 10:30:43;;;;;;;7.8;2.6;;;;;;;31.87;32.68262;938.9645;;;;
2019/07/05 10:33:11;;;;;;;5.7;2.5;;;;;;;32.16;32.12891;938.9597;;;;
2019/07/05 10:35:35;;;;;;;5.8;2.4;;;;;;;32.43;32.7002;938.8402;;;;
2019/07/05 10:38:05;;;;;;;4.7;2.3;;;;;;;32.49;30.47266;938.8611;;;;
2019/07/05 10:40:40;;;;;;;8.9;2.6;;;;;;;32.5;32.74121;938.9995;;;;
2019/07/05 10:43:02;;;;;;;4.6;2.3;;;;;;;32.51;36.05371;938.9413;;;;
2019/07/05 10:45:35;;;;;;;6;2.4;;;;;;;32.8;32.37793;938.9849;;;;
2019/07/05 10:48:01;;;;;;;5;2.3;;;;;;;32.81;31.6709;938.9439;;;;
2019/07/05 10:50:25;;;;;;;6;2.3;;;;;;;32.63;33.51758;938.981;;;;
2019/07/05 10:53:01;;;;;;;5;2.3;;;;;;;32.28;31.3457;938.8734;;;;
2019/07/05 10:55:15;;;;;;;8.4;2.4;;;;;;;31.8;35.46973;938.8791;;;;
2019/07/05 10:57:45;;;;;;;7.7;2.4;;;;;;;31.41;34.25391;938.8572;;;;
2019/07/05 11:00:15;;;;;;;8.8;2.4;;;;;;;31.72;35.15234;938.8546;;;;
2019/07/05 11:02:38;;;;;;;7.1;2.6;;;;;;;31.59;36.2666;938.8734;;;;
2019/07/05 11:05:04;;;;;;;9;2.8;;;;;;;30.88;34.32227;938.8748;;;;
2019/07/05 11:07:30;;;;;;;5.5;2.2;;;;;;;30.69;28.82227;938.9081;;;;
2019/07/05 11:09:56;;;;;;;4.5;2.2;;;;;;;31.14;28.9707;938.7278;;;;
2019/07/05 11:12:20;;;;;;;5.3;2.3;;;;;;;31.27;28.03418;938.7842;;;;
2019/07/05 11:14:48;;;;;;;8;2.1;;;;;;;31.59;29.49121;938.872;;;;
2019/07/05 11:17:11;;;;;;;5.6;2.3;;;;;;;31.82;35.51855;938.7313;;;;
2019/07/05 11:19:43;;;;;;;6.7;2.2;;;;;;;32.26;29.55762;938.6873;;;;
2019/07/05 11:22:10;;;;;;;6.9;2.4;;;;;;;32.52;29.31152;938.5823;;;;
2019/07/05 11:24:35;;;;;;;5;2.1;;;;;;;32.55;32.3125;938.6295;;;;
2019/07/05 11:27:00;;;;;;;5.5;2.2;;;;;;;31.88;30.49219;938.6678;;;;
2019/07/05 11:29:35;;;;;;;4.9;2.3;;;;;;;31.5;28.51465;938.687;;;;
2019/07/05 11:32:09;;;;;;;5.3;2.2;;;;;;;31.38;30.38574;938.59;;;;
2019/07/05 11:34:35;;;;;;;3.6;2.3;;;;;;;31.16;30.54004;938.571;;;;
2019/07/05 11:37:15;;;;;;;4.7;2;;;;;;;31.64;32.89453;938.5348;;;;
2019/07/05 11:39:43;;;;;;;5.8;2.3;;;;;;;31.89;31.27148;938.4239;;;;
2019/07/05 11:42:14;;;;;;;6.8;2.3;;;;;;;31.75;31.42969;938.4539;;;;
2019/07/05 11:44:42;;;;;;;5.7;2.3;;;;;;;31.98;30.58203;938.4785;;;;
2019/07/05 11:47:12;;;;;;;4.4;2.3;;;;;;;31.84;31.32715;938.548;;;;
2019/07/05 11:49:40;;;;;;;6.1;2.3;;;;;;;31.47;30.26074;938.5686;;;;
2019/07/05 11:52:19;;;;;;;4.4;2.3;;;;;;;31;32.6084;938.4861;;;;
2019/07/05 11:54:45;;;;;;;5;2.3;;;;;;;30.74;31.47852;938.4213;;;;
2019/07/05 11:57:10;;;;;;;5.3;2.1;;;;;;;30.7;31.77441;938.5122;;;;
2019/07/05 11:59:49;;;;;;;4.7;2.4;;;;;;;31.28;33;938.5986;;;;
2019/07/05 12:02:21;;;;;;;4.9;2.4;;;;;;;31.83;28.45117;938.5981;;;;
2019/07/05 12:05:18;;;;;;;3;2;;;;;;;31.14;29.91602;938.6146;;;;
2019/07/05 12:11:45;;;;;;;5.3;2.1;;;;;;;31.92;29.33301;938.4882;;;;
2019/07/05 12:14:10;;;;;;;5.6;2.1;;;;;;;31.95;28.61523;938.4445;;;;
2019/07/05 12:16:42;;;;;;;5.4;2.2;;;;;;;31.85;30.33398;938.4797;;;;
2019/07/05 12:19:03;;;;;;;4.8;2.2;;;;;;;32.14;32.31934;938.4139;;;;
2019/07/05 12:21:28;;;;;;;3.9;2.1;;;;;;;32.41;32.35059;938.4131;;;;
2019/07/05 12:24:02;;;;;;;7.4;2.4;;;;;;;32.48;30.4248;938.3387;;;;
2019/07/05 12:26:25;;;;;;;6.4;2.4;;;;;;;32.55;29.2041;938.4594;;;;
2019/07/05 12:28:57;;;;;;;6.2;2.3;;;;;;;32.6;29.87988;938.3347;;;;
2019/07/05 12:31:26;;;;;;;8.6;2.5;;;;;;;32.51;32.5498;938.3028;;;;
2019/07/05 12:34:01;;;;;;;4.4;2.4;;;;;;;32.4;31.49805;938.3592;;;;
2019/07/05 12:36:24;;;;;;;6.5;2.4;;;;;;;32.28;31.66992;938.3234;;;;
2019/07/05 12:38:53;;;;;;;5.5;2.3;;;;;;;31.93;32.17285;938.2192;;;;
2019/07/05 12:41:16;;;;;;;4.9;2;;;;;;;31.94;28.97363;938.2969;;;;
2019/07/05 12:43:46;;;;;;;5.1;2.1;;;;;;;31.95;29.62109;938.322;;;;
2019/07/05 12:46:16;;;;;;;4.9;2.4;;;;;;;32.29;30.16016;938.3075;;;;
2019/07/05 12:48:48;;;;;;;6.2;2.2;;;;;;;32.3;29.41602;938.2983;;;;
2019/07/05 12:51:13;;;;;;;5.1;2.4;;;;;;;32.12;29.11719;938.2996;;;;
2019/07/05 12:53:39;;;;;;;8.3;2.1;;;;;;;32.1;31.09375;938.3735;;;;
2019/07/05 12:56:16;;;;;;;6.3;2.2;;;;;;;31.86;33.10254;938.2977;;;;
2019/07/05 12:58:37;;;;;;;6.2;2.3;;;;;;;31.65;31.24219;938.3055;;;;
2019/07/05 13:01:01;;;;;;;5.7;2.2;;;;;;;31.56;31.23633;938.2769;;;;
2019/07/05 13:03:27;;;;;;;4.4;2.1;;;;;;;31.99;31.0625;938.3307;;;;
2019/07/05 13:05:59;;;;;;;7.5;2.4;;;;;;;32.13;31.43164;938.3455;;;;
2019/07/05 13:08:31;;;;;;;7.1;2.2;;;;;;;32.28;30.67383;938.3289;;;;
2019/07/05 13:11:04;;;;;;;6.6;2.3;;;;;;;32.39;31.47363;938.2101;;;;
2019/07/05 13:13:29;;;;;;;3.4;2.3;;;;;;;32.63;29.86914;938.2684;;;;
2019/07/05 13:16:00;;;;;;;4.1;2.2;;;;;;;32.1;29.2002;938.3169;;;;
2019/07/05 13:18:20;;;;;;;5.2;2.2;;;;;;;31.99;28.92871;938.2307;;;;
2019/07/05 13:20:50;;;;;;;4.2;2.1;;;;;;;32.01;26.60547;938.2488;;;;
2019/07/05 13:23:17;;;;;;;4.8;2.1;;;;;;;32.23;28.00977;938.2429;;;;
2019/07/05 13:25:47;;;;;;;5;2;;;;;;;32.23;27.30176;938.2483;;;;
2019/07/05 13:28:14;;;;;;;3.7;2.1;;;;;;;32.11;27.18652;938.2389;;;;
2019/07/05 13:30:49;;;;;;;3;2.1;;;;;;;32.24;29.50781;938.2471;;;;
2019/07/05 13:33:11;;;;;;;5.1;2.3;;;;;;;32.48;29.33301;938.2595;;;;
2019/07/05 13:35:35;;;;;;;6;2.3;;;;;;;32.39;30.41797;938.3156;;;;
2019/07/05 13:38:00;;;;;;;5.2;2.3;;;;;;;32.23;28.76465;938.2048;;;;
2019/07/05 13:40:26;;;;;;;5.2;2.5;;;;;;;32.14;30.68848;938.2479;;;;
2019/07/05 13:42:56;;;;;;;4.3;2.3;;;;;;;32.22;30.63379;938.193;;;;
2019/07/05 13:45:26;;;;;;;6;2.7;;;;;;;32.03;31.26953;938.126;;;;
2019/07/05 13:48:01;;;;;;;4.4;2.4;;;;;;;31.42;31.75391;938.0828;;;;
2019/07/05 13:50:20;;;;;;;7.8;2.4;;;;;;;31.1;31.37207;938.0948;;;;
2019/07/05 13:52:48;;;;;;;5.7;2.6;;;;;;;30.9;30.86816;938.105;;;;
2019/07/05 13:55:22;;;;;;;7.4;2.9;;;;;;;30.9;31.74121;938.1181;;;;
2019/07/05 13:57:50;;;;;;;5.4;2.6;;;;;;;30.65;31.87891;938.1519;;;;
2019/07/05 14:00:24;;;;;;;3.6;2.5;;;;;;;30.24;32.79297;938.0447;;;;
2019/07/05 14:02:48;;;;;;;6;2.7;;;;;;;30.29;33.01172;938.0222;;;;
2019/07/05 14:05:21;;;;;;;4.1;2.2;;;;;;;30.56;33.77246;938.1281;;;;
2019/07/05 14:07:43;;;;;;;6;2.4;;;;;;;30.82;33.51563;938.1801;;;;
2019/07/05 14:10:12;;;;;;;4.5;2.5;;;;;;;30.62;32.36719;938.0912;;;;
2019/07/05 14:12:40;;;;;;;6;2.5;;;;;;;30.64;32.83398;938.1494;;;;
2019/07/05 14:15:10;;;;;;;7.5;2.5;;;;;;;30.87;32.50488;938.1656;;;;
2019/07/05 14:17:53;;;;;;;4.2;2.4;;;;;;;31;32.14258;938.082;;;;
2019/07/05 14:20:19;;;;;;;5.5;2.5;;;;;;;30.82;33.01367;938.0787;;;;
2019/07/05 14:22:47;;;;;;;4.6;2.6;;;;;;;30.6;33.1416;938.1042;;;;
2019/07/05 14:25:12;;;;;;;8.2;2.4;;;;;;;30.66;33.33691;938.0941;;;;
2019/07/05 14:27:37;;;;;;;7.7;2.4;;;;;;;30.66;34.00684;938.0848;;;;
2019/07/05 14:36:47;;;;;;;5.3;2.3;;;;;;;30.25;32.94824;938.1262;;;;
2019/07/05 14:39:20;;;;;;;5.8;2.5;;;;;;;30.27;33.20117;938.017;;;;
2019/07/05 14:41:49;;;;;;;8.9;2.6;;;;;;;30.27;33.08203;938.0039;;;;
2019/07/05 14:44:14;;;;;;;4.8;2.5;;;;;;;29.9;34.52246;938.0367;;;;
2019/07/05 14:46:37;;;;;;;6.2;2.6;;;;;;;30.02;34.14941;938.0944;;;;
2019/07/05 14:49:02;;;;;;;3.8;2.4;;;;;;;29.94;34.20313;938.0865;;;;
2019/07/05 14:51:33;;;;;;;7.2;2.6;;;;;;;29.87;34.53125;938.1563;;;;
2019/07/05 14:54:05;;;;;;;5.7;2.7;;;;;;;29.82;33.68066;938.0628;;;;